sensor_id;sensor_type;location;lat;lon;timestamp;pressure;altitude;pressure_sealevel;temperature;humidity
11605;BME280;5858;43.076;25.626;2024-01-30T00:00:40;101458.88;;;-0.26;99.70
11605;BME280;5858;43.076;25.626;2024-01-30T00:03:07;101608.41;;;0.72;100.00
11605;BME280;5858;43.076;25.626;2024-01-30T00:05:36;101487.06;;;-0.29;100.00
11605;BME280;5858;43.076;25.626;2024-01-30T00:08:05;101654.84;;;0.75;100.00
11605;BME280;5858;43.076;25.626;2024-01-30T00:10:36;101589.03;;;0.53;100.00
11605;BME280;5858;43.076;25.626;2024-01-30T00:13:07;101674.22;;;0.96;100.00
11605;BME280;5858;43.076;25.626;2024-01-30T00:15:39;101633.25;;;0.67;100.00
11605;BME280;5858;43.076;25.626;2024-01-30T00:18:07;101549.06;;;0.21;99.62
11605;BME280;5858;43.076;25.626;2024-01-30T00:20:36;101576.16;;;0.45;100.00
11605;BME280;5858;43.076;25.626;2024-01-30T00:23:05;101620.88;;;0.69;99.78
11605;BME280;5858;43.076;25.626;2024-01-30T00:25:41;101562.72;;;0.31;99.97
11605;BME280;5858;43.076;25.626;2024-01-30T00:28:11;101591.88;;;0.48;99.82
11605;BME280;5858;43.076;25.626;2024-01-30T00:30:40;101655.25;;;0.86;100.00
11605;BME280;5858;43.076;25.626;2024-01-30T00:33:08;101619.75;;;0.74;99.88
11605;BME280;5858;43.076;25.626;2024-01-30T00:35:43;101529.38;;;0.10;99.74
11605;BME280;5858;43.076;25.626;2024-01-30T00:38:14;101687.59;;;1.11;99.57
11605;BME280;5858;43.076;25.626;2024-01-30T00:40:43;101635.91;;;0.87;99.45
11605;BME280;5858;43.076;25.626;2024-01-30T00:43:16;101566.53;;;0.44;99.11
11605;BME280;5858;43.076;25.626;2024-01-30T00:45:44;101460.75;;;-0.08;98.52
11605;BME280;5858;43.076;25.626;2024-01-30T00:48:11;101542.38;;;0.35;99.25
11605;BME280;5858;43.076;25.626;2024-01-30T00:50:38;101526.03;;;0.26;98.80
11605;BME280;5858;43.076;25.626;2024-01-30T00:53:06;101489.88;;;-0.12;99.19
11605;BME280;5858;43.076;25.626;2024-01-30T00:55:35;101631.66;;;0.62;99.35
11605;BME280;5858;43.076;25.626;2024-01-30T00:58:02;101692.41;;;1.02;99.13
11605;BME280;5858;43.076;25.626;2024-01-30T01:00:32;101584.56;;;0.55;99.11
11605;BME280;5858;43.076;25.626;2024-01-30T01:02:59;101594.44;;;0.70;99.36
11605;BME280;5858;43.076;25.626;2024-01-30T01:05:26;101442.44;;;-0.31;98.96
11605;BME280;5858;43.076;25.626;2024-01-30T01:07:55;101647.09;;;0.92;99.26
11605;BME280;5858;43.076;25.626;2024-01-30T01:10:23;101476.72;;;-0.12;99.14
11605;BME280;5858;43.076;25.626;2024-01-30T01:12:50;101613.16;;;0.84;98.73
11605;BME280;5858;43.076;25.626;2024-01-30T01:15:18;101558.56;;;0.46;98.92
11605;BME280;5858;43.076;25.626;2024-01-30T01:17:45;101593.00;;;0.83;97.94
11605;BME280;5858;43.076;25.626;2024-01-30T01:20:12;101545.84;;;0.35;97.79
11605;BME280;5858;43.076;25.626;2024-01-30T01:22:39;101644.38;;;0.95;98.22
11605;BME280;5858;43.076;25.626;2024-01-30T01:25:07;101624.25;;;0.92;98.21
11605;BME280;5858;43.076;25.626;2024-01-30T01:27:36;101601.97;;;0.79;97.82
11605;BME280;5858;43.076;25.626;2024-01-30T01:30:13;101666.66;;;1.08;97.84
11605;BME280;5858;43.076;25.626;2024-01-30T01:32:53;101604.94;;;0.92;97.73
11605;BME280;5858;43.076;25.626;2024-01-30T01:35:28;101607.41;;;0.97;97.52
11605;BME280;5858;43.076;25.626;2024-01-30T01:38:03;101500.03;;;0.19;97.38
11605;BME280;5858;43.076;25.626;2024-01-30T01:40:37;101434.44;;;-0.08;96.96
11605;BME280;5858;43.076;25.626;2024-01-30T01:43:09;101569.34;;;0.82;97.04
11605;BME280;5858;43.076;25.626;2024-01-30T01:45:46;101502.59;;;0.41;96.17
11605;BME280;5858;43.076;25.626;2024-01-30T01:48:22;101617.47;;;1.07;96.25
11605;BME280;5858;43.076;25.626;2024-01-30T01:51:10;101555.53;;;0.77;96.60
11605;BME280;5858;43.076;25.626;2024-01-30T01:53:43;101564.16;;;0.80;96.82
11605;BME280;5858;43.076;25.626;2024-01-30T01:56:10;101486.41;;;0.29;96.35
11605;BME280;5858;43.076;25.626;2024-01-30T01:58:40;101536.44;;;0.51;96.86
11605;BME280;5858;43.076;25.626;2024-01-30T02:01:10;101630.28;;;0.74;96.85
11605;BME280;5858;43.076;25.626;2024-01-30T02:03:45;101590.81;;;0.73;96.67
11605;BME280;5858;43.076;25.626;2024-01-30T02:06:23;101581.59;;;0.62;96.55
11605;BME280;5858;43.076;25.626;2024-01-30T02:08:58;101437.19;;;-0.11;96.22
11605;BME280;5858;43.076;25.626;2024-01-30T02:11:25;101541.00;;;0.46;96.89
11605;BME280;5858;43.076;25.626;2024-01-30T02:13:56;101574.44;;;0.44;96.85
11605;BME280;5858;43.076;25.626;2024-01-30T02:16:28;101655.50;;;1.02;97.13
11605;BME280;5858;43.076;25.626;2024-01-30T02:18:58;101483.75;;;0.09;96.98
11605;BME280;5858;43.076;25.626;2024-01-30T02:21:27;101522.94;;;0.37;96.71
11605;BME280;5858;43.076;25.626;2024-01-30T02:24:07;101542.63;;;0.28;97.15
11605;BME280;5858;43.076;25.626;2024-01-30T02:26:37;101454.16;;;-0.18;97.30
11605;BME280;5858;43.076;25.626;2024-01-30T02:29:04;101524.13;;;0.30;97.84
11605;BME280;5858;43.076;25.626;2024-01-30T02:31:33;101623.56;;;0.67;97.59
11605;BME280;5858;43.076;25.626;2024-01-30T02:34:00;101481.44;;;0.02;97.47
11605;BME280;5858;43.076;25.626;2024-01-30T02:36:31;101632.84;;;0.98;97.91
11605;BME280;5858;43.076;25.626;2024-01-30T02:38:58;101606.50;;;0.76;98.28
11605;BME280;5858;43.076;25.626;2024-01-30T02:41:31;101513.00;;;0.23;97.94
11605;BME280;5858;43.076;25.626;2024-01-30T02:44:02;101576.84;;;0.50;98.19
11605;BME280;5858;43.076;25.626;2024-01-30T02:46:34;101543.13;;;0.16;97.93
11605;BME280;5858;43.076;25.626;2024-01-30T02:49:02;101465.00;;;-0.25;98.34
11605;BME280;5858;43.076;25.626;2024-01-30T02:51:31;101606.97;;;0.65;98.75
11605;BME280;5858;43.076;25.626;2024-01-30T02:54:01;101545.31;;;0.27;98.64
11605;BME280;5858;43.076;25.626;2024-01-30T02:56:28;101557.13;;;0.39;98.47
11605;BME280;5858;43.076;25.626;2024-01-30T02:58:58;101595.44;;;0.68;98.59
11605;BME280;5858;43.076;25.626;2024-01-30T03:01:27;101538.25;;;0.07;98.83
11605;BME280;5858;43.076;25.626;2024-01-30T03:04:16;101419.03;;;-0.60;98.75
11605;BME280;5858;43.076;25.626;2024-01-30T03:06:52;101655.53;;;0.80;98.97
11605;BME280;5858;43.076;25.626;2024-01-30T03:09:33;101657.06;;;0.85;98.48
11605;BME280;5858;43.076;25.626;2024-01-30T03:12:04;101481.94;;;-0.33;98.83
11605;BME280;5858;43.076;25.626;2024-01-30T03:14:42;101432.06;;;-0.57;99.68
11605;BME280;5858;43.076;25.626;2024-01-30T03:17:10;101577.84;;;0.48;99.19
11605;BME280;5858;43.076;25.626;2024-01-30T03:19:46;101573.78;;;0.39;98.77
11605;BME280;5858;43.076;25.626;2024-01-30T03:22:15;101463.22;;;-0.25;98.34
11605;BME280;5858;43.076;25.626;2024-01-30T03:24:42;101594.50;;;0.48;97.80
11605;BME280;5858;43.076;25.626;2024-01-30T03:27:10;101465.53;;;-0.17;97.66
11605;BME280;5858;43.076;25.626;2024-01-30T03:29:45;101589.13;;;0.72;97.66
11605;BME280;5858;43.076;25.626;2024-01-30T03:32:17;101429.66;;;-0.40;97.04
11605;BME280;5858;43.076;25.626;2024-01-30T03:34:45;101593.47;;;0.73;97.27
11605;BME280;5858;43.076;25.626;2024-01-30T03:37:18;101603.94;;;0.74;97.39
11605;BME280;5858;43.076;25.626;2024-01-30T03:39:45;101543.22;;;0.35;97.22
11605;BME280;5858;43.076;25.626;2024-01-30T03:42:14;101591.34;;;0.81;97.36
11605;BME280;5858;43.076;25.626;2024-01-30T03:44:46;101519.81;;;0.49;96.35
11605;BME280;5858;43.076;25.626;2024-01-30T03:47:13;101549.09;;;0.42;95.96
11605;BME280;5858;43.076;25.626;2024-01-30T03:49:49;101547.88;;;0.28;96.17
11605;BME280;5858;43.076;25.626;2024-01-30T03:52:26;101566.53;;;0.66;96.73
11605;BME280;5858;43.076;25.626;2024-01-30T03:54:55;101540.28;;;0.43;96.09
11605;BME280;5858;43.076;25.626;2024-01-30T03:57:25;101608.50;;;0.91;95.76
11605;BME280;5858;43.076;25.626;2024-01-30T03:59:52;101569.34;;;0.61;95.82
11605;BME280;5858;43.076;25.626;2024-01-30T04:02:20;101615.16;;;0.79;95.64
11605;BME280;5858;43.076;25.626;2024-01-30T04:04:47;101430.97;;;-0.30;95.31
11605;BME280;5858;43.076;25.626;2024-01-30T04:07:15;101556.47;;;0.34;96.10
11605;BME280;5858;43.076;25.626;2024-01-30T04:09:46;101619.06;;;0.49;97.14
11605;BME280;5858;43.076;25.626;2024-01-30T04:12:14;101650.25;;;0.80;96.48
11605;BME280;5858;43.076;25.626;2024-01-30T04:14:44;101562.97;;;0.25;96.57
11605;BME280;5858;43.076;25.626;2024-01-30T04:17:14;101514.19;;;0.16;96.95
11605;BME280;5858;43.076;25.626;2024-01-30T04:19:44;101603.84;;;0.55;96.76
11605;BME280;5858;43.076;25.626;2024-01-30T04:22:11;101646.50;;;0.85;96.33
11605;BME280;5858;43.076;25.626;2024-01-30T04:24:41;101656.91;;;0.88;96.72
11605;BME280;5858;43.076;25.626;2024-01-30T04:27:10;101550.03;;;0.19;96.77
11605;BME280;5858;43.076;25.626;2024-01-30T04:29:38;101472.22;;;-0.30;96.75
11605;BME280;5858;43.076;25.626;2024-01-30T04:32:09;101617.81;;;0.57;96.25
11605;BME280;5858;43.076;25.626;2024-01-30T04:34:41;101654.84;;;0.75;96.11
11605;BME280;5858;43.076;25.626;2024-01-30T04:37:08;101537.13;;;0.13;96.31
11605;BME280;5858;43.076;25.626;2024-01-30T04:39:38;101567.06;;;0.32;96.30
11605;BME280;5858;43.076;25.626;2024-01-30T04:42:06;101488.00;;;-0.30;96.36
11605;BME280;5858;43.076;25.626;2024-01-30T04:44:35;101598.53;;;0.35;96.38
11605;BME280;5858;43.076;25.626;2024-01-30T04:47:03;101496.97;;;-0.14;95.98
11605;BME280;5858;43.076;25.626;2024-01-30T04:49:43;101563.56;;;0.31;96.32
11605;BME280;5858;43.076;25.626;2024-01-30T04:52:14;101669.31;;;0.86;96.56
11605;BME280;5858;43.076;25.626;2024-01-30T04:54:41;101693.75;;;0.90;96.13
11605;BME280;5858;43.076;25.626;2024-01-30T04:57:09;101477.59;;;-0.34;96.06
11605;BME280;5858;43.076;25.626;2024-01-30T04:59:42;101666.66;;;0.86;96.38
11605;BME280;5858;43.076;25.626;2024-01-30T05:02:09;101657.13;;;0.84;96.37
11605;BME280;5858;43.076;25.626;2024-01-30T05:04:42;101655.59;;;0.78;96.33
11605;BME280;5858;43.076;25.626;2024-01-30T05:07:11;101450.75;;;-0.42;96.45
11605;BME280;5858;43.076;25.626;2024-01-30T05:10:12;101455.28;;;-0.45;96.24
11605;BME280;5858;43.076;25.626;2024-01-30T05:12:42;101660.88;;;0.78;97.17
11605;BME280;5858;43.076;25.626;2024-01-30T05:15:23;101574.84;;;0.13;96.82
11605;BME280;5858;43.076;25.626;2024-01-30T05:17:52;101580.31;;;0.09;97.19
11605;BME280;5858;43.076;25.626;2024-01-30T05:20:27;101549.91;;;0.22;96.73
11605;BME280;5858;43.076;25.626;2024-01-30T05:22:57;101639.88;;;0.55;96.80
11605;BME280;5858;43.076;25.626;2024-01-30T05:25:32;101661.84;;;0.76;97.28
11605;BME280;5858;43.076;25.626;2024-01-30T05:27:59;101672.19;;;0.80;96.91
11605;BME280;5858;43.076;25.626;2024-01-30T05:30:57;101575.00;;;0.30;97.49
11605;BME280;5858;43.076;25.626;2024-01-30T05:33:38;101598.09;;;0.46;97.41
11605;BME280;5858;43.076;25.626;2024-01-30T05:36:11;101501.13;;;-0.09;96.56
11605;BME280;5858;43.076;25.626;2024-01-30T05:38:40;101520.50;;;0.12;96.76
11605;BME280;5858;43.076;25.626;2024-01-30T05:41:08;101443.38;;;-0.55;96.66
11605;BME280;5858;43.076;25.626;2024-01-30T05:43:35;101519.44;;;-0.06;96.69
11605;BME280;5858;43.076;25.626;2024-01-30T05:46:05;101535.81;;;0.03;96.28
11605;BME280;5858;43.076;25.626;2024-01-30T05:48:37;101525.56;;;-0.27;96.82
11605;BME280;5858;43.076;25.626;2024-01-30T05:51:07;101607.47;;;0.31;96.97
11605;BME280;5858;43.076;25.626;2024-01-30T05:53:40;101630.06;;;0.37;96.56
11605;BME280;5858;43.076;25.626;2024-01-30T05:56:13;101661.31;;;0.68;97.13
11605;BME280;5858;43.076;25.626;2024-01-30T05:58:44;101562.03;;;-0.18;97.12
11605;BME280;5858;43.076;25.626;2024-01-30T06:01:14;101670.53;;;0.78;96.18
11605;BME280;5858;43.076;25.626;2024-01-30T06:03:47;101476.94;;;-0.39;96.03
11605;BME280;5858;43.076;25.626;2024-01-30T06:06:22;101544.78;;;0.19;96.66
11605;BME280;5858;43.076;25.626;2024-01-30T06:09:03;101603.66;;;0.60;96.38
11605;BME280;5858;43.076;25.626;2024-01-30T06:11:43;101705.53;;;1.03;95.49
11605;BME280;5858;43.076;25.626;2024-01-30T06:14:14;101470.00;;;-0.19;94.99
11605;BME280;5858;43.076;25.626;2024-01-30T06:23:20;101670.03;;;0.90;96.13
11605;BME280;5858;43.076;25.626;2024-01-30T06:26:37;101669.56;;;0.80;96.13
11605;BME280;5858;43.076;25.626;2024-01-30T06:29:08;101671.47;;;0.77;96.34
11605;BME280;5858;43.076;25.626;2024-01-30T06:32:07;101667.00;;;0.79;96.35
11605;BME280;5858;43.076;25.626;2024-01-30T06:34:36;101540.22;;;0.02;96.32
11605;BME280;5858;43.076;25.626;2024-01-30T06:37:15;101681.88;;;0.80;96.42
11605;BME280;5858;43.076;25.626;2024-01-30T06:42:46;101643.53;;;0.73;95.89
11605;BME280;5858;43.076;25.626;2024-01-30T06:45:14;101570.75;;;0.06;96.03
11605;BME280;5858;43.076;25.626;2024-01-30T06:47:52;101647.19;;;0.47;96.47
11605;BME280;5858;43.076;25.626;2024-01-30T06:50:37;101712.38;;;0.85;96.16
11605;BME280;5858;43.076;25.626;2024-01-30T06:53:16;101608.03;;;0.17;96.09
11605;BME280;5858;43.076;25.626;2024-01-30T07:28:26;101675.22;;;1.13;93.60
11605;BME280;5858;43.076;25.626;2024-01-30T07:31:26;101643.75;;;0.88;93.60
11605;BME280;5858;43.076;25.626;2024-01-30T07:37:23;101701.25;;;1.62;91.87
11605;BME280;5858;43.076;25.626;2024-01-30T07:43:03;101735.59;;;1.80;91.22
11605;BME280;5858;43.076;25.626;2024-01-30T07:45:35;101704.50;;;1.87;90.08
11605;BME280;5858;43.076;25.626;2024-01-30T07:48:09;101690.16;;;1.74;89.84
11605;BME280;5858;43.076;25.626;2024-01-30T07:50:37;101702.56;;;1.92;89.55
11605;BME280;5858;43.076;25.626;2024-01-30T07:53:06;101717.31;;;1.96;89.06
11605;BME280;5858;43.076;25.626;2024-01-30T07:55:38;101632.94;;;1.55;88.84
11605;BME280;5858;43.076;25.626;2024-01-30T07:58:18;101515.22;;;0.75;88.67
11605;BME280;5858;43.076;25.626;2024-01-30T08:01:03;101575.25;;;1.27;88.62
11605;BME280;5858;43.076;25.626;2024-01-30T08:03:59;101612.25;;;1.46;88.41
11605;BME280;5858;43.076;25.626;2024-01-30T08:06:30;101548.56;;;0.96;87.58
11605;BME280;5858;43.076;25.626;2024-01-30T08:09:05;101627.16;;;1.27;87.91
11605;BME280;5858;43.076;25.626;2024-01-30T08:11:45;101705.47;;;1.66;88.40
11605;BME280;5858;43.076;25.626;2024-01-30T08:14:27;101732.63;;;1.88;89.38
11605;BME280;5858;43.076;25.626;2024-01-30T08:17:08;101634.41;;;1.42;88.98
11605;BME280;5858;43.076;25.626;2024-01-30T08:19:36;101667.50;;;1.49;89.09
11605;BME280;5858;43.076;25.626;2024-01-30T08:22:33;101713.19;;;1.91;88.96
11605;BME280;5858;43.076;25.626;2024-01-30T08:25:03;101553.41;;;0.85;88.98
11605;BME280;5858;43.076;25.626;2024-01-30T08:27:33;101624.66;;;1.24;88.11
11605;BME280;5858;43.076;25.626;2024-01-30T08:30:03;101586.72;;;1.26;88.13
11605;BME280;5858;43.076;25.626;2024-01-30T08:32:32;101518.50;;;0.80;87.78
11605;BME280;5858;43.076;25.626;2024-01-30T08:35:02;101672.66;;;1.52;88.60
11605;BME280;5858;43.076;25.626;2024-01-30T08:37:43;101635.97;;;1.26;88.51
11605;BME280;5858;43.076;25.626;2024-01-30T08:40:16;101528.38;;;0.75;88.76
11605;BME280;5858;43.076;25.626;2024-01-30T08:42:52;101547.94;;;0.69;89.28
11605;BME280;5858;43.076;25.626;2024-01-30T08:45:23;101544.13;;;0.56;89.31
11605;BME280;5858;43.076;25.626;2024-01-30T08:48:00;101555.84;;;0.69;89.07
11605;BME280;5858;43.076;25.626;2024-01-30T08:50:36;101728.34;;;1.85;89.46
11605;BME280;5858;43.076;25.626;2024-01-30T08:53:19;101620.75;;;1.33;89.12
11605;BME280;5858;43.076;25.626;2024-01-30T08:55:59;101644.75;;;1.47;89.06
11605;BME280;5858;43.076;25.626;2024-01-30T08:58:45;101728.19;;;1.88;89.32
11605;BME280;5858;43.076;25.626;2024-01-30T09:01:24;101748.94;;;1.98;88.62
11605;BME280;5858;43.076;25.626;2024-01-30T09:04:37;101690.22;;;1.72;88.51
11605;BME280;5858;43.076;25.626;2024-01-30T09:07:31;101560.97;;;0.92;88.21
11605;BME280;5858;43.076;25.626;2024-01-30T09:10:01;101607.28;;;1.39;87.74
11605;BME280;5858;43.076;25.626;2024-01-30T09:12:38;101519.22;;;0.83;87.98
11605;BME280;5858;43.076;25.626;2024-01-30T09:15:11;101694.56;;;1.94;88.38
11605;BME280;5858;43.076;25.626;2024-01-30T09:17:40;101567.25;;;1.10;87.39
11605;BME280;5858;43.076;25.626;2024-01-30T09:20:12;101594.06;;;1.59;87.48
11605;BME280;5858;43.076;25.626;2024-01-30T09:22:45;101588.22;;;1.52;86.94
11605;BME280;5858;43.076;25.626;2024-01-30T09:25:13;101480.38;;;0.68;86.42
11605;BME280;5858;43.076;25.626;2024-01-30T09:27:43;101606.47;;;1.57;87.11
11605;BME280;5858;43.076;25.626;2024-01-30T09:30:11;101717.19;;;2.18;87.13
11605;BME280;5858;43.076;25.626;2024-01-30T09:32:40;101616.59;;;1.66;86.04
11605;BME280;5858;43.076;25.626;2024-01-30T09:35:09;101560.66;;;1.39;85.96
11605;BME280;5858;43.076;25.626;2024-01-30T09:37:40;101621.97;;;1.83;86.50
11605;BME280;5858;43.076;25.626;2024-01-30T09:40:18;101447.66;;;0.92;85.46
11605;BME280;5858;43.076;25.626;2024-01-30T09:42:55;101502.91;;;1.33;86.21
11605;BME280;5858;43.076;25.626;2024-01-30T09:45:36;101681.19;;;2.53;85.08
11605;BME280;5858;43.076;25.626;2024-01-30T09:48:07;101477.69;;;1.27;83.62
11605;BME280;5858;43.076;25.626;2024-01-30T09:50:39;101620.41;;;1.98;83.92
11605;BME280;5858;43.076;25.626;2024-01-30T09:53:11;101637.81;;;2.21;84.09
11605;BME280;5858;43.076;25.626;2024-01-30T09:56:02;101575.22;;;1.85;84.00
11605;BME280;5858;43.076;25.626;2024-01-30T09:58:30;101540.59;;;1.55;83.82
11605;BME280;5858;43.076;25.626;2024-01-30T10:00:58;101715.13;;;2.62;83.90
11605;BME280;5858;43.076;25.626;2024-01-30T10:03:25;101636.34;;;2.51;83.35
11605;BME280;5858;43.076;25.626;2024-01-30T10:05:55;101511.56;;;1.55;82.98
11605;BME280;5858;43.076;25.626;2024-01-30T10:08:29;101510.06;;;1.69;82.83
11605;BME280;5858;43.076;25.626;2024-01-30T10:11:03;101715.75;;;2.67;83.25
11605;BME280;5858;43.076;25.626;2024-01-30T10:14:00;101529.75;;;1.62;82.25
11605;BME280;5858;43.076;25.626;2024-01-30T10:16:29;101552.16;;;1.91;82.51
11605;BME280;5858;43.076;25.626;2024-01-30T10:18:57;101531.03;;;1.72;83.20
11605;BME280;5858;43.076;25.626;2024-01-30T10:21:25;101567.09;;;2.09;83.03
11605;BME280;5858;43.076;25.626;2024-01-30T10:23:59;101596.03;;;2.29;81.86
11605;BME280;5858;43.076;25.626;2024-01-30T10:26:26;101524.03;;;1.71;81.67
11605;BME280;5858;43.076;25.626;2024-01-30T10:28:55;101507.03;;;1.76;82.72
11605;BME280;5858;43.076;25.626;2024-01-30T10:31:22;101586.13;;;2.15;82.31
11605;BME280;5858;43.076;25.626;2024-01-30T10:33:49;101681.47;;;2.83;83.00
11605;BME280;5858;43.076;25.626;2024-01-30T10:36:19;101646.00;;;2.70;82.27
11605;BME280;5858;43.076;25.626;2024-01-30T10:38:51;101647.19;;;2.81;82.32
11605;BME280;5858;43.076;25.626;2024-01-30T10:41:31;101556.84;;;2.20;81.53
11605;BME280;5858;43.076;25.626;2024-01-30T10:44:08;101575.44;;;2.18;81.44
11605;BME280;5858;43.076;25.626;2024-01-30T10:46:51;101496.72;;;1.72;81.48
11605;BME280;5858;43.076;25.626;2024-01-30T10:49:29;101584.25;;;2.00;82.06
11605;BME280;5858;43.076;25.626;2024-01-30T10:52:05;101488.38;;;1.62;82.50
11605;BME280;5858;43.076;25.626;2024-01-30T10:54:42;101555.22;;;2.17;81.29
11605;BME280;5858;43.076;25.626;2024-01-30T10:57:34;101525.69;;;2.09;80.76
11605;BME280;5858;43.076;25.626;2024-01-30T11:00:16;101614.97;;;2.56;81.62
11605;BME280;5858;43.076;25.626;2024-01-30T11:02:48;101656.13;;;2.79;81.31
11605;BME280;5858;43.076;25.626;2024-01-30T11:05:23;101650.06;;;2.77;80.44
11605;BME280;5858;43.076;25.626;2024-01-30T11:07:53;101523.75;;;2.13;80.80
11605;BME280;5858;43.076;25.626;2024-01-30T11:10:20;101563.91;;;2.38;79.28
11605;BME280;5858;43.076;25.626;2024-01-30T11:12:50;101648.13;;;2.80;80.40
11605;BME280;5858;43.076;25.626;2024-01-30T11:15:21;101569.19;;;2.56;79.81
11605;BME280;5858;43.076;25.626;2024-01-30T11:17:51;101484.47;;;1.88;79.92
11605;BME280;5858;43.076;25.626;2024-01-30T11:20:25;101547.56;;;2.30;79.54
11605;BME280;5858;43.076;25.626;2024-01-30T11:22:54;101465.97;;;1.89;78.47
11605;BME280;5858;43.076;25.626;2024-01-30T11:25:22;101606.97;;;2.75;78.73
11605;BME280;5858;43.076;25.626;2024-01-30T11:27:55;101477.38;;;2.07;78.90
11605;BME280;5858;43.076;25.626;2024-01-30T11:30:24;101639.13;;;3.19;77.44
11605;BME280;5858;43.076;25.626;2024-01-30T11:33:01;101560.34;;;2.91;77.37
11605;BME280;5858;43.076;25.626;2024-01-30T11:35:31;101529.25;;;2.44;78.27
11605;BME280;5858;43.076;25.626;2024-01-30T11:37:59;101611.03;;;2.82;79.22
11605;BME280;5858;43.076;25.626;2024-01-30T11:40:27;101492.53;;;2.04;80.59
11605;BME280;5858;43.076;25.626;2024-01-30T11:42:56;101507.28;;;2.08;80.79
11605;BME280;5858;43.076;25.626;2024-01-30T11:45:27;101473.22;;;1.84;80.19
11605;BME280;5858;43.076;25.626;2024-01-30T11:47:55;101598.97;;;2.76;80.94
11605;BME280;5858;43.076;25.626;2024-01-30T11:50:22;101591.13;;;2.58;80.34
11605;BME280;5858;43.076;25.626;2024-01-30T11:52:54;101568.91;;;2.26;80.60
11605;BME280;5858;43.076;25.626;2024-01-30T11:55:23;101593.84;;;2.73;80.23
11605;BME280;5858;43.076;25.626;2024-01-30T11:57:50;101544.94;;;2.47;80.35
11605;BME280;5858;43.076;25.626;2024-01-30T12:00:21;101473.81;;;2.08;79.60
11605;BME280;5858;43.076;25.626;2024-01-30T12:02:52;101575.88;;;2.45;80.06
11605;BME280;5858;43.076;25.626;2024-01-30T12:05:21;101579.31;;;2.65;80.14
11605;BME280;5858;43.076;25.626;2024-01-30T12:07:49;101484.31;;;2.10;78.99
11605;BME280;5858;43.076;25.626;2024-01-30T12:10:16;101488.97;;;2.22;79.73
11605;BME280;5858;43.076;25.626;2024-01-30T12:12:47;101578.25;;;2.86;79.33
11605;BME280;5858;43.076;25.626;2024-01-30T12:15:19;101586.63;;;2.94;78.33
11605;BME280;5858;43.076;25.626;2024-01-30T12:17:52;101583.06;;;2.95;77.70
11605;BME280;5858;43.076;25.626;2024-01-30T12:20:20;101583.66;;;3.00;77.41
11605;BME280;5858;43.076;25.626;2024-01-30T12:22:49;101474.06;;;2.21;76.68
11605;BME280;5858;43.076;25.626;2024-01-30T12:25:18;101575.19;;;2.94;77.01
11605;BME280;5858;43.076;25.626;2024-01-30T12:27:46;101505.97;;;2.34;77.12
11605;BME280;5858;43.076;25.626;2024-01-30T12:30:16;101556.84;;;2.73;78.15
11605;BME280;5858;43.076;25.626;2024-01-30T12:32:44;101545.16;;;2.77;77.71
11605;BME280;5858;43.076;25.626;2024-01-30T12:35:17;101502.13;;;2.41;77.41
11605;BME280;5858;43.076;25.626;2024-01-30T12:37:47;101563.44;;;2.82;77.65
11605;BME280;5858;43.076;25.626;2024-01-30T12:40:17;101536.00;;;2.67;77.56
11605;BME280;5858;43.076;25.626;2024-01-30T12:42:47;101419.59;;;2.01;78.24
11605;BME280;5858;43.076;25.626;2024-01-30T12:45:15;101468.31;;;2.30;77.87
11605;BME280;5858;43.076;25.626;2024-01-30T12:47:45;101494.44;;;2.53;77.85
11605;BME280;5858;43.076;25.626;2024-01-30T12:50:15;101593.41;;;3.00;78.03
11605;BME280;5858;43.076;25.626;2024-01-30T12:52:43;101473.69;;;2.46;78.58
11605;BME280;5858;43.076;25.626;2024-01-30T12:55:10;101581.66;;;2.88;78.56
11605;BME280;5858;43.076;25.626;2024-01-30T12:57:38;101556.38;;;3.00;78.89
11605;BME280;5858;43.076;25.626;2024-01-30T13:00:07;101491.22;;;2.64;79.12
11605;BME280;5858;43.076;25.626;2024-01-30T13:02:34;101443.81;;;2.61;79.26
11605;BME280;5858;43.076;25.626;2024-01-30T13:05:05;101552.41;;;3.41;78.09
11605;BME280;5858;43.076;25.626;2024-01-30T13:07:35;101526.06;;;3.23;77.45
11605;BME280;5858;43.076;25.626;2024-01-30T13:10:06;101581.88;;;3.51;76.86
11605;BME280;5858;43.076;25.626;2024-01-30T13:12:36;101554.72;;;3.47;76.51
11605;BME280;5858;43.076;25.626;2024-01-30T13:15:05;101472.94;;;2.94;77.18
11605;BME280;5858;43.076;25.626;2024-01-30T13:17:32;101516.06;;;3.28;76.10
11605;BME280;5858;43.076;25.626;2024-01-30T13:20:04;101553.19;;;3.59;75.68
11605;BME280;5858;43.076;25.626;2024-01-30T13:22:37;101551.41;;;3.27;76.98
11605;BME280;5858;43.076;25.626;2024-01-30T13:25:05;101360.03;;;2.13;77.25
11605;BME280;5858;43.076;25.626;2024-01-30T13:28:11;101427.19;;;2.59;76.90
11605;BME280;5858;43.076;25.626;2024-01-30T13:30:38;101478.28;;;2.93;76.12
11605;BME280;5858;43.076;25.626;2024-01-30T13:33:06;101536.22;;;3.30;77.01
11605;BME280;5858;43.076;25.626;2024-01-30T13:35:33;101487.81;;;3.12;77.24
11605;BME280;5858;43.076;25.626;2024-01-30T13:38:04;101548.16;;;3.55;76.45
11605;BME280;5858;43.076;25.626;2024-01-30T13:40:32;101501.47;;;3.21;74.91
11605;BME280;5858;43.076;25.626;2024-01-30T13:42:59;101548.53;;;3.31;74.06
11605;BME280;5858;43.076;25.626;2024-01-30T13:45:26;101465.00;;;2.94;74.01
11605;BME280;5858;43.076;25.626;2024-01-30T13:47:53;101343.41;;;2.11;72.66
11605;BME280;5858;43.076;25.626;2024-01-30T13:50:20;101348.78;;;2.09;72.76
11605;BME280;5858;43.076;25.626;2024-01-30T13:52:47;101499.91;;;3.01;71.53
11605;BME280;5858;43.076;25.626;2024-01-30T13:55:17;101416.81;;;2.39;71.39
11605;BME280;5858;43.076;25.626;2024-01-30T13:57:44;101505.50;;;2.95;71.24
11605;BME280;5858;43.076;25.626;2024-01-30T14:00:12;101367.22;;;2.27;70.87
11605;BME280;5858;43.076;25.626;2024-01-30T14:02:41;101403.44;;;2.42;71.11
11605;BME280;5858;43.076;25.626;2024-01-30T14:05:08;101361.13;;;2.09;70.30
11605;BME280;5858;43.076;25.626;2024-01-30T14:07:36;101328.28;;;1.97;71.16
11605;BME280;5858;43.076;25.626;2024-01-30T14:10:07;101506.47;;;3.09;70.89
11605;BME280;5858;43.076;25.626;2024-01-30T14:12:35;101415.16;;;2.36;70.87
11605;BME280;5858;43.076;25.626;2024-01-30T14:15:03;101402.59;;;2.41;71.62